Time;durP1;ratioP1;P1;durP2;ratioP2;P2;SDS_P1;SDS_P2;PMS_P1;PMS_P2;Temp;Humidity;BMP_temperature;BMP_pressure;BME280_temperature;BME280_humidity;BME280_pressure;Samples;Min_cycle;Max_cycle;Signal;HPM_P1;HPM_P2
2022/06/21 00:00:29;;;;;;;16.48;4.57;;;13.40;99.90;;;;;;5017901;28;20025;-46
2022/06/21 00:03:17;;;;;;;12.07;4.45;;;13.50;99.90;;;;;;5017298;28;20033;-44
2022/06/21 00:05:46;;;;;;;11.05;5.47;;;13.40;99.90;;;;;;5017460;28;20484;-45
2022/06/21 00:08:21;;;;;;;6.60;5.10;;;13.30;99.90;;;;;;5017661;28;20052;-44
2022/06/21 00:10:47;;;;;;;12.32;5.18;;;13.20;99.90;;;;;;5034819;28;20029;-49
2022/06/21 00:13:16;;;;;;;15.43;5.03;;;13.20;99.90;;;;;;5035008;28;20072;-48
2022/06/21 00:15:43;;;;;;;13.30;5.97;;;13.10;99.90;;;;;;5017281;28;20018;-44
2022/06/21 00:18:16;;;;;;;9.10;5.28;;;13.00;99.90;;;;;;5017087;28;20026;-49
2022/06/21 00:20:42;;;;;;;23.15;5.90;;;12.90;99.90;;;;;;5017036;28;20021;-46
2022/06/21 00:23:14;;;;;;;25.92;6.03;;;12.80;99.90;;;;;;5035169;28;20025;-44
2022/06/21 00:25:41;;;;;;;19.55;5.00;;;12.70;99.90;;;;;;5034950;28;20030;-45
2022/06/21 00:28:06;;;;;;;15.55;5.43;;;12.70;99.90;;;;;;5016758;28;20026;-46
2022/06/21 00:30:32;;;;;;;14.40;4.88;;;12.80;99.90;;;;;;5034740;28;20026;-44
2022/06/21 00:32:58;;;;;;;13.07;4.90;;;12.90;99.90;;;;;;5016983;28;20022;-45
2022/06/21 00:35:25;;;;;;;17.55;5.20;;;13.00;99.90;;;;;;5016986;28;20075;-45
2022/06/21 00:37:51;;;;;;;11.88;4.95;;;13.00;99.90;;;;;;5016773;28;20056;-46
2022/06/21 00:40:19;;;;;;;10.07;5.47;;;13.00;99.90;;;;;;5016657;28;20048;-45
2022/06/21 00:42:51;;;;;;;14.23;5.57;;;12.90;99.90;;;;;;5016657;28;20053;-44
2022/06/21 00:45:46;;;;;;;14.60;7.38;;;12.80;99.90;;;;;;5034426;28;20029;-45
2022/06/21 00:48:16;;;;;;;10.68;4.47;;;12.70;99.90;;;;;;5032801;28;20049;-45
2022/06/21 00:50:56;;;;;;;17.60;4.93;;;12.50;99.90;;;;;;5034311;28;20029;-45
2022/06/21 00:53:30;;;;;;;13.93;4.78;;;12.50;99.90;;;;;;5034314;28;20080;-46
2022/06/21 00:55:56;;;;;;;14.93;4.38;;;12.40;99.90;;;;;;5016550;28;20024;-45
2022/06/21 00:58:25;;;;;;;13.45;4.07;;;12.20;99.90;;;;;;5034327;28;20025;-44
2022/06/21 01:00:58;;;;;;;15.13;5.85;;;12.30;99.90;;;;;;5034269;28;20022;-46
2022/06/21 01:03:44;;;;;;;10.10;4.20;;;12.40;99.90;;;;;;5016286;28;20034;-46
2022/06/21 01:06:17;;;;;;;15.18;5.10;;;12.60;99.90;;;;;;5016990;28;20051;-44
2022/06/21 01:08:47;;;;;;;14.65;4.72;;;12.60;99.90;;;;;;5016746;28;20037;-45
2022/06/21 01:11:21;;;;;;;16.15;5.03;;;12.50;99.90;;;;;;5016483;28;20028;-46
2022/06/21 01:13:50;;;;;;;19.67;4.80;;;12.40;99.90;;;;;;5033843;28;20021;-47
2022/06/21 01:16:17;;;;;;;14.57;5.25;;;12.30;99.90;;;;;;5034086;28;20052;-45
2022/06/21 01:18:44;;;;;;;15.77;5.05;;;12.20;99.90;;;;;;5033725;28;20030;-45
2022/06/21 01:21:13;;;;;;;19.50;5.20;;;12.20;99.90;;;;;;5015894;28;20025;-46
2022/06/21 01:23:42;;;;;;;18.33;6.25;;;12.10;99.90;;;;;;5033670;28;20021;-44
2022/06/21 01:26:32;;;;;;;12.80;5.50;;;12.10;99.90;;;;;;5016528;28;20030;-45
2022/06/21 01:29:00;;;;;;;30.65;6.10;;;12.00;99.90;;;;;;5033523;28;20108;-44
2022/06/21 01:31:28;;;;;;;12.18;5.47;;;12.00;99.90;;;;;;5033497;28;20083;-47
2022/06/21 01:33:53;;;;;;;16.17;6.47;;;11.90;99.90;;;;;;5016074;28;20026;-47
2022/06/21 01:36:35;;;;;;;19.05;7.28;;;11.90;99.90;;;;;;5016135;28;20037;-45
2022/06/21 01:39:13;;;;;;;13.10;5.40;;;11.80;99.90;;;;;;5015838;28;20026;-46
2022/06/21 01:41:56;;;;;;;14.00;6.28;;;11.80;99.90;;;;;;5015841;28;20037;-45
2022/06/21 01:44:27;;;;;;;15.45;6.63;;;11.70;99.90;;;;;;5015693;28;20036;-44
2022/06/21 01:46:55;;;;;;;9.25;6.47;;;11.70;99.90;;;;;;5033673;28;20438;-45
2022/06/21 01:49:25;;;;;;;11.63;7.05;;;11.70;99.90;;;;;;5033131;28;20025;-47
2022/06/21 01:51:58;;;;;;;16.65;5.75;;;11.80;99.90;;;;;;5033371;28;20053;-45
2022/06/21 01:54:32;;;;;;;16.08;6.10;;;11.80;99.90;;;;;;5033646;28;20034;-45
2022/06/21 01:56:58;;;;;;;15.15;7.18;;;11.60;99.90;;;;;;5015622;28;20023;-45
2022/06/21 01:59:28;;;;;;;10.32;5.95;;;11.60;99.90;;;;;;5033162;28;20028;-46
2022/06/21 02:02:01;;;;;;;13.20;7.13;;;11.60;99.90;;;;;;5033507;28;20030;-46
2022/06/21 02:04:31;;;;;;;13.00;7.13;;;11.50;99.90;;;;;;5015453;28;20041;-48
2022/06/21 02:07:05;;;;;;;13.50;6.93;;;11.40;99.90;;;;;;5015302;28;20022;-49
2022/06/21 02:09:37;;;;;;;15.15;5.80;;;11.40;99.90;;;;;;5015377;28;20026;-49
2022/06/21 02:12:06;;;;;;;12.23;5.45;;;11.50;99.90;;;;;;5033254;28;20022;-47
2022/06/21 02:14:42;;;;;;;9.55;4.97;;;11.50;99.90;;;;;;5033404;28;20028;-47
2022/06/21 02:17:32;;;;;;;14.57;5.97;;;11.50;99.90;;;;;;5033144;28;20033;-46
2022/06/21 02:20:16;;;;;;;13.15;5.22;;;11.60;99.90;;;;;;5016028;28;20025;-46
2022/06/21 02:22:42;;;;;;;14.85;5.50;;;11.60;99.90;;;;;;5033222;28;20052;-49
2022/06/21 02:25:20;;;;;;;15.80;4.45;;;11.50;99.90;;;;;;5015471;28;20029;-46
2022/06/21 02:27:46;;;;;;;10.30;4.85;;;11.50;99.90;;;;;;5033520;28;20029;-45
2022/06/21 02:30:20;;;;;;;11.18;5.25;;;11.50;99.90;;;;;;5015239;28;20018;-47
2022/06/21 02:32:47;;;;;;;10.70;5.57;;;11.40;99.90;;;;;;5033341;28;20036;-50
2022/06/21 02:36:01;;;;;;;16.60;5.55;;;11.40;99.90;;;;;;5018497;28;20075;-45
2022/06/21 02:38:56;;;;;;;20.33;4.05;;;11.50;99.90;;;;;;5023911;28;20040;-44
2022/06/21 02:41:30;;;;;;;13.68;4.18;;;11.40;99.90;;;;;;5019033;28;20029;-47
2022/06/21 02:44:06;;;;;;;9.45;5.25;;;11.40;99.90;;;;;;5036813;28;20022;-47
2022/06/21 02:46:37;;;;;;;20.85;6.85;;;11.30;99.90;;;;;;5036752;28;20078;-48
2022/06/21 02:49:32;;;;;;;13.25;4.70;;;11.20;99.90;;;;;;5018877;28;20030;-46
2022/06/21 02:52:12;;;;;;;13.10;5.60;;;11.40;99.90;;;;;;5030785;28;20030;-44
2022/06/21 02:54:59;;;;;;;18.90;4.75;;;11.30;99.90;;;;;;5036531;28;20029;-49
2022/06/21 02:57:43;;;;;;;13.82;5.05;;;11.30;99.90;;;;;;5019215;28;20491;-45
2022/06/21 03:00:18;;;;;;;19.83;4.95;;;11.30;99.90;;;;;;5036396;28;20026;-49
2022/06/21 03:02:44;;;;;;;17.65;4.65;;;11.30;99.90;;;;;;5036591;28;20025;-49
2022/06/21 03:05:19;;;;;;;10.30;4.95;;;11.40;99.90;;;;;;5018906;28;20034;-48
2022/06/21 03:07:53;;;;;;;11.80;4.72;;;11.50;99.90;;;;;;5018410;28;20028;-47
2022/06/21 03:10:24;;;;;;;15.10;4.38;;;11.40;99.90;;;;;;5018349;28;20026;-48
2022/06/21 03:13:07;;;;;;;16.40;4.97;;;11.40;99.90;;;;;;5018980;28;20025;-48
2022/06/21 03:15:34;;;;;;;7.35;4.70;;;11.40;99.90;;;;;;5019481;28;20036;-45
2022/06/21 03:18:17;;;;;;;19.52;7.57;;;11.50;99.90;;;;;;5035970;28;20104;-45
2022/06/21 03:20:43;;;;;;;12.15;5.47;;;11.60;99.90;;;;;;5018172;28;20036;-45
2022/06/21 03:23:13;;;;;;;14.18;5.63;;;11.70;99.90;;;;;;5018225;28;20108;-48
2022/06/21 03:25:52;;;;;;;16.50;5.70;;;11.80;99.90;;;;;;5036146;28;20026;-49
2022/06/21 03:28:23;;;;;;;17.05;6.47;;;11.90;99.90;;;;;;5017967;28;20388;-48
2022/06/21 03:30:51;;;;;;;20.40;7.67;;;11.90;99.90;;;;;;5018056;28;20022;-47
2022/06/21 03:33:16;;;;;;;12.30;6.88;;;11.80;99.90;;;;;;5017932;28;20265;-46
2022/06/21 03:35:43;;;;;;;18.92;7.50;;;11.90;99.90;;;;;;5035799;28;20053;-44
2022/06/21 03:38:08;;;;;;;14.77;8.38;;;12.00;99.90;;;;;;5017909;28;20021;-45
2022/06/21 03:43:32;;;;;;;21.52;9.18;;;12.10;99.90;;;;;;5035659;28;20095;-48
2022/06/21 03:46:01;;;;;;;24.30;9.82;;;12.20;99.90;;;;;;5035211;28;20061;-46
2022/06/21 03:48:33;;;;;;;18.05;9.75;;;12.20;99.90;;;;;;5017695;28;20033;-45
2022/06/21 03:51:16;;;;;;;19.92;9.98;;;12.40;99.90;;;;;;5017979;28;20026;-46
2022/06/21 03:53:50;;;;;;;14.48;9.13;;;12.50;99.90;;;;;;5017703;28;20025;-45
2022/06/21 03:56:29;;;;;;;15.02;8.70;;;12.50;99.90;;;;;;5017660;28;20032;-47
2022/06/21 03:59:27;;;;;;;21.08;9.95;;;12.60;99.90;;;;;;5017629;28;20040;-48
2022/06/21 04:01:55;;;;;;;16.42;8.80;;;12.60;99.90;;;;;;5017541;28;20030;-46
2022/06/21 04:04:33;;;;;;;18.73;8.57;;;12.60;99.90;;;;;;5035591;28;20036;-45
2022/06/21 04:07:16;;;;;;;25.08;8.73;;;12.90;99.90;;;;;;5017470;28;20049;-46
2022/06/21 04:09:56;;;;;;;25.50;9.10;;;13.00;99.90;;;;;;5035596;28;20045;-45
2022/06/21 04:12:28;;;;;;;16.95;9.18;;;12.80;99.90;;;;;;5017299;28;20028;-45
2022/06/21 04:14:57;;;;;;;;;;;12.70;99.90;;;;;;5017654;28;20025;-45
2022/06/21 04:17:33;;;;;;;19.75;9.07;;;12.90;99.90;;;;;;5034936;28;19911;-45
2022/06/21 04:20:15;;;;;;;32.65;8.48;;;12.80;99.90;;;;;;5034832;28;20041;-46
2022/06/21 04:23:00;;;;;;;;;;;12.90;99.90;;;;;;5017631;28;20029;-44
2022/06/21 04:25:41;;;;;;;16.33;8.27;;;12.80;99.90;;;;;;5016914;28;19905;-45
2022/06/21 04:28:15;;;;;;;16.17;8.65;;;12.60;99.90;;;;;;5016801;28;20032;-44
2022/06/21 04:30:59;;;;;;;15.93;8.32;;;12.60;99.90;;;;;;5034664;28;20026;-46
2022/06/21 04:33:43;;;;;;;14.23;8.13;;;12.80;99.90;;;;;;5035225;28;20096;-45
2022/06/21 04:36:13;;;;;;;12.93;7.50;;;13.00;99.90;;;;;;5034876;28;20103;-45
2022/06/21 04:38:45;;;;;;;14.23;7.40;;;13.20;99.90;;;;;;5017067;28;20025;-48
2022/06/21 04:41:21;;;;;;;54.72;10.57;;;13.10;99.90;;;;;;5034620;28;20495;-45
2022/06/21 04:43:57;;;;;;;14.02;6.80;;;12.80;99.90;;;;;;5034695;28;20026;-48
2022/06/21 04:46:31;;;;;;;19.50;7.55;;;12.70;99.90;;;;;;5034781;28;20029;-45
2022/06/21 04:49:26;;;;;;;28.58;7.72;;;12.90;99.90;;;;;;5017263;28;20022;-44
2022/06/21 04:52:02;;;;;;;16.45;6.63;;;12.90;99.90;;;;;;5034898;28;20160;-44
2022/06/21 04:54:30;;;;;;;7.07;5.72;;;12.60;99.90;;;;;;5017628;28;20100;-45
2022/06/21 04:57:09;;;;;;;9.80;6.40;;;13.00;99.90;;;;;;5016369;28;20021;-45
2022/06/21 04:59:40;;;;;;;9.60;6.63;;;13.20;99.90;;;;;;5034344;28;20026;-45
2022/06/21 05:02:18;;;;;;;8.20;5.50;;;13.30;99.90;;;;;;5016770;28;20052;-44
2022/06/21 05:04:45;;;;;;;9.10;6.28;;;13.40;99.90;;;;;;5016622;28;20037;-45
2022/06/21 05:07:18;;;;;;;9.80;6.80;;;13.50;99.90;;;;;;5034107;28;20036;-46
2022/06/21 05:09:45;;;;;;;11.63;7.07;;;13.50;99.90;;;;;;5016515;28;20392;-45
2022/06/21 05:12:23;;;;;;;12.65;7.00;;;13.60;99.90;;;;;;5034193;28;20026;-45
2022/06/21 05:14:55;;;;;;;16.80;8.27;;;13.70;99.90;;;;;;5016799;28;20025;-44
2022/06/21 05:17:21;;;;;;;14.70;7.70;;;13.80;99.90;;;;;;5016570;28;20091;-45
2022/06/21 05:19:51;;;;;;;15.73;8.25;;;14.00;99.90;;;;;;5016358;28;20088;-46
2022/06/21 05:22:39;;;;;;;16.58;9.02;;;14.00;99.90;;;;;;5034218;28;20037;-45
2022/06/21 05:25:30;;;;;;;15.27;9.25;;;14.00;99.90;;;;;;5033966;28;20108;-45
2022/06/21 05:28:23;;;;;;;14.40;8.48;;;13.70;99.90;;;;;;5034017;28;20033;-45
2022/06/21 05:30:53;;;;;;;15.07;8.85;;;14.00;99.90;;;;;;5016506;28;20022;-46
2022/06/21 05:33:35;;;;;;;15.35;8.82;;;14.10;99.90;;;;;;5016946;28;20108;-46
2022/06/21 05:36:05;;;;;;;14.98;8.88;;;14.20;99.90;;;;;;5016120;28;20049;-45
2022/06/21 05:38:35;;;;;;;14.70;7.60;;;14.50;99.90;;;;;;5034177;28;20065;-45
2022/06/21 05:41:29;;;;;;;11.10;7.18;;;14.40;99.90;;;;;;5016170;28;20025;-45
2022/06/21 05:44:18;;;;;;;11.48;7.35;;;14.10;99.90;;;;;;5033575;28;20021;-47
2022/06/21 05:47:03;;;;;;;17.58;6.88;;;14.10;99.90;;;;;;5015617;28;20098;-48
2022/06/21 05:49:34;;;;;;;13.30;6.70;;;14.10;99.90;;;;;;5016077;28;20487;-48
2022/06/21 05:52:05;;;;;;;11.73;7.40;;;14.30;99.90;;;;;;5015865;28;20052;-50
2022/06/21 05:54:36;;;;;;;14.52;7.30;;;14.80;99.90;;;;;;5033467;28;20022;-45
2022/06/21 05:57:04;;;;;;;12.73;7.45;;;14.90;99.90;;;;;;5015836;28;20056;-45
2022/06/21 05:59:30;;;;;;;12.18;8.35;;;14.60;99.90;;;;;;5015487;28;20022;-47
2022/06/21 06:02:17;;;;;;;13.70;7.90;;;14.30;99.90;;;;;;5016518;28;20021;-46
2022/06/21 06:04:49;;;;;;;11.57;7.65;;;14.50;99.90;;;;;;5033239;28;20022;-45
2022/06/21 06:07:27;;;;;;;13.70;8.02;;;14.60;99.90;;;;;;5033080;28;20022;-46
2022/06/21 06:09:56;;;;;;;13.68;7.70;;;14.90;99.90;;;;;;5033167;28;20025;-44
2022/06/21 06:12:32;;;;;;;19.20;9.10;;;15.00;99.90;;;;;;5033191;28;20549;-47
2022/06/21 06:15:04;;;;;;;14.50;8.20;;;15.60;99.90;;;;;;5015503;28;20033;-46
2022/06/21 06:17:37;;;;;;;14.20;7.97;;;16.30;99.90;;;;;;5015601;28;20072;-49
2022/06/21 06:20:17;;;;;;;13.48;6.95;;;17.10;99.90;;;;;;5015418;28;20036;-47
2022/06/21 06:23:06;;;;;;;9.40;6.00;;;17.90;99.90;;;;;;5033216;28;20089;-45
2022/06/21 06:25:39;;;;;;;17.00;7.78;;;19.10;99.90;;;;;;5015922;28;20028;-46
2022/06/21 06:28:35;;;;;;;16.60;6.97;;;20.10;99.90;;;;;;5015459;28;20391;-44
2022/06/21 06:31:16;;;;;;;8.18;4.13;;;21.20;99.90;;;;;;5015478;28;20468;-45
2022/06/21 06:33:46;;;;;;;6.80;4.18;;;21.90;99.90;;;;;;5033218;28;20025;-43
2022/06/21 06:36:29;;;;;;;4.83;4.33;;;22.90;99.90;;;;;;5015479;28;20396;-45
2022/06/21 06:38:58;;;;;;;6.25;3.92;;;23.80;99.90;;;;;;5015377;28;20124;-43
2022/06/21 06:41:40;;;;;;;5.72;4.47;;;24.30;99.90;;;;;;5032968;28;20075;-45
2022/06/21 06:44:13;;;;;;;6.93;3.28;;;24.60;99.90;;;;;;5033161;28;20075;-44
2022/06/21 06:46:43;;;;;;;11.90;4.80;;;24.90;99.90;;;;;;5016123;28;20033;-44
2022/06/21 06:49:24;;;;;;;8.68;4.68;;;25.70;99.90;;;;;;5033434;28;20079;-43
2022/06/21 06:52:21;;;;;;;8.57;3.63;;;26.20;99.90;;;;;;5015637;28;20411;-46
2022/06/21 06:54:56;;;;;;;7.93;3.08;;;27.00;99.90;;;;;;5015260;28;20057;-47
2022/06/21 06:57:33;;;;;;;5.88;2.88;;;27.10;99.90;;;;;;5015436;28;20104;-47
2022/06/21 07:00:00;;;;;;;6.30;3.42;;;27.90;99.90;;;;;;5015162;28;20384;-45
2022/06/21 07:02:34;;;;;;;4.75;3.60;;;28.70;99.90;;;;;;5015094;28;20554;-45
2022/06/21 07:05:04;;;;;;;6.72;2.80;;;29.40;97.50;;;;;;5032774;28;20022;-43
2022/06/21 07:07:41;;;;;;;4.43;2.67;;;30.10;95.80;;;;;;5032831;28;20129;-48
2022/06/21 07:10:13;;;;;;;6.38;3.47;;;30.40;92.90;;;;;;5033230;28;20061;-48
2022/06/21 07:12:39;;;;;;;4.55;3.20;;;30.90;91.70;;;;;;5016150;28;20029;-45
2022/06/21 07:15:07;;;;;;;6.28;3.47;;;31.40;91.00;;;;;;5032971;28;20095;-50
2022/06/21 07:17:38;;;;;;;5.85;3.58;;;32.00;86.00;;;;;;5033034;28;20029;-47
2022/06/21 07:20:42;;;;;;;3.78;3.03;;;32.00;85.40;;;;;;5015998;28;20099;-45
2022/06/21 07:23:44;;;;;;;6.88;3.35;;;31.90;82.20;;;;;;5036288;28;20061;-50
2022/06/21 07:26:37;;;;;;;5.80;3.58;;;31.80;83.50;;;;;;5035455;28;20047;-46
2022/06/21 07:29:14;;;;;;;5.70;3.20;;;32.40;80.90;;;;;;5035177;28;20021;-49
2022/06/21 07:31:45;;;;;;;5.82;3.30;;;32.30;80.90;;;;;;5035039;28;20018;-48
2022/06/21 07:34:19;;;;;;;4.25;2.83;;;32.80;77.50;;;;;;5035128;28;20101;-45
2022/06/21 07:36:50;;;;;;;5.75;3.33;;;32.30;78.70;;;;;;5018136;28;20030;-46
2022/06/21 07:39:31;;;;;;;5.70;2.60;;;32.50;75.40;;;;;;5036124;28;20036;-46
2022/06/21 07:42:20;;;;;;;5.43;3.03;;;32.30;78.00;;;;;;5035874;28;20021;-46
2022/06/21 07:44:49;;;;;;;6.38;2.63;;;32.70;75.50;;;;;;5035613;28;20037;-46
2022/06/21 07:47:25;;;;;;;5.25;2.90;;;33.60;73.10;;;;;;5017943;28;20056;-47
2022/06/21 07:49:56;;;;;;;4.57;3.00;;;33.90;73.40;;;;;;5018891;28;20029;-46
2022/06/21 07:52:37;;;;;;;5.40;2.85;;;34.20;72.70;;;;;;5035715;28;20028;-46
2022/06/21 07:55:17;;;;;;;6.50;3.00;;;35.30;69.50;;;;;;5035983;28;20026;-46
2022/06/21 07:57:51;;;;;;;4.60;2.40;;;34.80;67.60;;;;;;5017945;28;20120;-48
2022/06/21 08:00:20;;;;;;;4.53;3.28;;;34.10;69.10;;;;;;5017699;28;20073;-48
2022/06/21 08:08:54;;;;;;;4.57;2.50;;;34.50;66.00;;;;;;5035759;28;20028;-45
2022/06/21 08:11:25;;;;;;;9.77;2.72;;;33.40;67.70;;;;;;5018150;28;20022;-46
2022/06/21 08:13:52;;;;;;;5.95;3.00;;;32.60;66.70;;;;;;5017831;28;20030;-46
2022/06/21 08:16:22;;;;;;;5.55;2.58;;;33.50;64.80;;;;;;5017848;28;20029;-47
2022/06/21 08:19:07;;;;;;;5.28;1.90;;;33.10;65.30;;;;;;5035165;28;20021;-52
2022/06/21 08:21:42;;;;;;;4.40;1.80;;;33.70;66.30;;;;;;5018102;28;20045;-49
2022/06/21 08:24:44;;;;;;;5.97;2.40;;;33.90;65.90;;;;;;5035395;28;20052;-53
2022/06/21 08:27:28;;;;;;;9.57;2.60;;;34.70;62.90;;;;;;4984967;28;20091;-46
2022/06/21 08:29:58;;;;;;;3.50;2.10;;;33.40;61.00;;;;;;5034913;28;20598;-46
2022/06/21 08:32:41;;;;;;;5.75;3.00;;;32.10;68.00;;;;;;5035130;28;20070;-51
2022/06/21 08:35:44;;;;;;;4.13;2.28;;;31.60;65.30;;;;;;5017825;28;20025;-47
2022/06/21 08:38:28;;;;;;;3.08;1.88;;;32.60;65.70;;;;;;5004024;28;20125;-49
2022/06/21 08:41:05;;;;;;;7.72;2.13;;;34.50;65.30;;;;;;5034764;28;20022;-51
2022/06/21 08:43:34;;;;;;;4.70;1.95;;;35.20;61.70;;;;;;5034856;28;20034;-48
2022/06/21 08:46:13;;;;;;;4.22;2.20;;;34.60;61.00;;;;;;5016937;28;20025;-50
2022/06/21 08:48:51;;;;;;;8.65;2.08;;;33.90;58.60;;;;;;5034488;28;20064;-48
2022/06/21 08:51:41;;;;;;;3.78;1.80;;;33.70;60.60;;;;;;5017652;28;20029;-47
2022/06/21 08:54:27;;;;;;;4.93;2.20;;;33.00;60.60;;;;;;5034591;28;20018;-50
2022/06/21 08:57:01;;;;;;;4.95;1.67;;;31.90;59.80;;;;;;5016778;28;20065;-47
2022/06/21 09:00:12;;;;;;;6.75;2.38;;;32.30;61.90;;;;;;5016679;28;20036;-47
2022/06/21 09:02:59;;;;;;;8.05;2.10;;;33.30;58.00;;;;;;4994308;28;20572;-48
2022/06/21 09:05:30;;;;;;;4.75;1.75;;;32.70;58.20;;;;;;5034383;28;20510;-52
2022/06/21 09:07:56;;;;;;;6.47;2.08;;;32.40;57.80;;;;;;5034186;28;20029;-47
2022/06/21 09:10:41;;;;;;;4.25;1.83;;;31.80;58.60;;;;;;5034170;28;20027;-51
2022/06/21 09:13:18;;;;;;;4.88;1.98;;;32.90;59.50;;;;;;5034345;28;20021;-47
2022/06/21 09:15:53;;;;;;;4.57;1.67;;;33.80;58.20;;;;;;5034208;28;20060;-47
2022/06/21 09:18:56;;;;;;;4.72;2.15;;;32.70;56.10;;;;;;5034151;28;20029;-47
2022/06/21 09:21:46;;;;;;;4.00;1.88;;;31.60;57.40;;;;;;5033998;28;20067;-46
2022/06/21 09:24:38;;;;;;;3.47;1.70;;;30.50;58.40;;;;;;4986706;28;20033;-47
2022/06/21 09:27:22;;;;;;;2.60;1.55;;;31.60;59.70;;;;;;5016241;28;20099;-46
2022/06/21 09:30:12;;;;;;;2.08;1.55;;;32.10;58.60;;;;;;5034136;28;20022;-47
2022/06/21 09:32:55;;;;;;;3.67;1.65;;;33.10;58.30;;;;;;5016092;28;20022;-51
2022/06/21 09:35:49;;;;;;;6.47;1.75;;;32.80;58.20;;;;;;5016212;28;20034;-46
2022/06/21 09:38:25;;;;;;;4.60;1.83;;;31.00;57.50;;;;;;5016239;28;20033;-48
2022/06/21 09:41:01;;;;;;;6.72;1.83;;;30.30;58.40;;;;;;5033648;28;20028;-46
2022/06/21 09:44:01;;;;;;;5.80;1.80;;;29.30;60.90;;;;;;5033327;28;20029;-46
2022/06/21 09:46:47;;;;;;;3.13;1.67;;;29.20;62.50;;;;;;5001403;28;20033;-47
2022/06/21 09:49:24;;;;;;;3.58;1.15;;;29.60;61.20;;;;;;5033494;28;20442;-48
2022/06/21 09:52:04;;;;;;;4.82;1.80;;;31.20;60.60;;;;;;5033675;28;20026;-52
2022/06/21 09:54:34;;;;;;;3.33;1.70;;;32.90;59.40;;;;;;5015921;28;20021;-48
2022/06/21 09:57:04;;;;;;;4.55;1.50;;;33.40;56.80;;;;;;5016193;28;20043;-49
2022/06/21 09:59:40;;;;;;;3.05;1.45;;;33.50;57.90;;;;;;5016565;28;20052;-50
2022/06/21 10:02:13;;;;;;;5.00;1.65;;;34.40;56.20;;;;;;5033409;28;20029;-47
2022/06/21 10:05:03;;;;;;;6.22;2.05;;;33.50;56.70;;;;;;5016760;28;20033;-46
2022/06/21 10:07:47;;;;;;;4.38;1.52;;;32.70;58.40;;;;;;5015953;28;20388;-47
2022/06/21 10:10:59;;;;;;;3.67;1.42;;;31.90;60.10;;;;;;5033328;28;20048;-48
2022/06/21 10:13:28;;;;;;;4.57;1.55;;;33.20;59.30;;;;;;4971013;28;20038;-46
2022/06/21 10:16:04;;;;;;;2.55;1.23;;;33.80;56.20;;;;;;5016463;28;20018;-46
2022/06/21 10:18:55;;;;;;;3.88;1.33;;;32.50;56.40;;;;;;5016414;28;20117;-49
2022/06/21 10:21:56;;;;;;;3.67;1.50;;;31.70;59.70;;;;;;5033057;28;20052;-50
2022/06/21 10:24:36;;;;;;;5.85;1.52;;;32.20;59.00;;;;;;5033202;28;20029;-49
2022/06/21 10:27:05;;;;;;;3.58;1.52;;;31.70;57.50;;;;;;5033038;28;20038;-47
2022/06/21 10:29:52;;;;;;;3.85;1.30;;;31.40;59.00;;;;;;5033117;28;20017;-49
2022/06/21 10:32:44;;;;;;;5.15;1.58;;;30.60;60.40;;;;;;5033416;28;20061;-47
2022/06/21 10:35:19;;;;;;;3.63;1.77;;;30.10;62.50;;;;;;5033289;28;20029;-52
2022/06/21 10:38:16;;;;;;;4.05;1.70;;;29.80;63.10;;;;;;5015364;28;20032;-47
2022/06/21 10:40:54;;;;;;;7.63;1.90;;;29.30;64.90;;;;;;5015345;28;20092;-48
2022/06/21 10:44:07;;;;;;;4.25;1.45;;;28.90;63.30;;;;;;5033024;28;20080;-49
2022/06/21 10:46:36;;;;;;;2.75;1.10;;;29.10;62.90;;;;;;4987354;28;20517;-48
2022/06/21 10:49:42;;;;;;;5.10;1.70;;;29.80;65.40;;;;;;5015207;28;20025;-48
2022/06/21 10:52:22;;;;;;;2.38;1.60;;;29.20;62.70;;;;;;5033292;28;20018;-46
2022/06/21 10:54:48;;;;;;;3.80;1.52;;;28.30;64.50;;;;;;5017018;28;20026;-46
2022/06/21 10:57:39;;;;;;;6.47;1.60;;;27.90;64.80;;;;;;5036676;28;20092;-47
2022/06/21 11:03:35;;;;;;;3.92;1.17;;;27.20;66.70;;;;;;5036728;28;20048;-48
2022/06/21 11:06:09;;;;;;;6.07;1.90;;;27.30;69.10;;;;;;5036536;28;20045;-47
2022/06/21 11:09:03;;;;;;;5.72;1.80;;;27.90;67.70;;;;;;5018755;28;20061;-48
2022/06/21 11:11:28;;;;;;;2.45;1.55;;;27.20;68.00;;;;;;5036698;28;20014;-46
2022/06/21 11:14:01;;;;;;;3.05;1.27;;;27.20;66.90;;;;;;5018664;28;20022;-48
2022/06/21 11:16:51;;;;;;;3.55;1.67;;;27.50;68.30;;;;;;5036411;28;20021;-47
2022/06/21 11:19:55;;;;;;;3.77;1.30;;;27.40;66.30;;;;;;5036425;28;20480;-46
2022/06/21 11:22:27;;;;;;;3.53;1.30;;;27.80;66.30;;;;;;5018763;28;20060;-50
2022/06/21 11:25:15;;;;;;;3.05;1.45;;;27.80;67.80;;;;;;5036520;28;20480;-53
2022/06/21 11:27:56;;;;;;;4.90;1.60;;;27.60;66.00;;;;;;5036733;28;20030;-49
2022/06/21 11:30:47;;;;;;;4.97;1.60;;;27.40;65.70;;;;;;5019180;28;20030;-47
2022/06/21 11:33:19;;;;;;;4.47;1.35;;;27.20;67.40;;;;;;5036655;28;20375;-50
2022/06/21 11:35:55;;;;;;;3.75;1.95;;;27.00;66.00;;;;;;5036021;28;20109;-49
2022/06/21 11:38:58;;;;;;;1.85;1.45;;;26.90;65.50;;;;;;5018296;28;20064;-51
2022/06/21 11:42:06;;;;;;;3.20;1.20;;;26.70;67.80;;;;;;5018085;28;20025;-49
2022/06/21 11:44:56;;;;;;;2.15;1.20;;;26.40;66.30;;;;;;5018193;28;20048;-47
2022/06/21 11:47:59;;;;;;;4.60;1.42;;;26.40;66.50;;;;;;5018039;28;20026;-52
2022/06/21 11:50:32;;;;;;;5.57;1.73;;;26.40;66.90;;;;;;5035726;28;20021;-47
2022/06/21 11:53:16;;;;;;;6.47;1.50;;;26.00;67.00;;;;;;5017928;28;20017;-49
2022/06/21 11:55:51;;;;;;;2.70;1.40;;;25.70;67.90;;;;;;5018738;28;20085;-49
2022/06/21 11:58:44;;;;;;;9.35;3.60;;;25.80;68.90;;;;;;5035545;28;20025;-49
2022/06/21 12:01:25;;;;;;;2.80;1.65;;;25.70;67.60;;;;;;5035490;28;20022;-50
2022/06/21 12:03:50;;;;;;;4.47;1.73;;;25.60;68.10;;;;;;5017817;28;20045;-51
2022/06/21 12:06:29;;;;;;;4.85;1.90;;;25.50;68.20;;;;;;5017215;28;20072;-47
2022/06/21 12:09:04;;;;;;;2.28;1.15;;;25.30;68.20;;;;;;5035658;28;20029;-49
2022/06/21 12:11:52;;;;;;;4.60;1.55;;;25.60;69.80;;;;;;5017775;28;20028;-50
2022/06/21 12:14:43;;;;;;;2.38;1.13;;;25.70;69.80;;;;;;5035311;28;20053;-48
2022/06/21 12:17:26;;;;;;;2.97;1.60;;;25.70;69.10;;;;;;5017001;28;20117;-49
2022/06/21 12:19:56;;;;;;;7.90;1.50;;;25.90;68.40;;;;;;5035308;28;20048;-47
2022/06/21 12:22:38;;;;;;;4.70;1.80;;;26.40;68.60;;;;;;5017636;28;20022;-50
2022/06/21 12:25:09;;;;;;;1.95;1.25;;;26.60;67.80;;;;;;5017560;28;20043;-48
2022/06/21 12:27:35;;;;;;;;;;;26.90;68.00;;;;;;5017801;28;20526;-47
2022/06/21 12:30:14;;;;;;;3.65;1.40;;;26.40;66.50;;;;;;5017469;28;19952;-52
2022/06/21 12:32:40;;;;;;;3.88;1.42;;;26.20;68.20;;;;;;5034891;28;20072;-52
2022/06/21 12:35:14;;;;;;;3.70;1.40;;;26.20;66.40;;;;;;5034894;28;20052;-53
2022/06/21 12:37:45;;;;;;;1.55;1.15;;;26.20;67.30;;;;;;5034837;28;20091;-49
2022/06/21 12:40:23;;;;;;;7.43;1.77;;;26.00;67.50;;;;;;5017040;28;20025;-50
2022/06/21 12:43:13;;;;;;;4.28;1.30;;;26.20;68.60;;;;;;5017615;28;20049;-52
2022/06/21 12:45:57;;;;;;;6.00;1.65;;;26.50;68.70;;;;;;5017784;28;20025;-52
2022/06/21 12:48:41;;;;;;;5.03;1.50;;;26.40;66.30;;;;;;5034638;28;20017;-49
2022/06/21 12:51:39;;;;;;;3.15;1.20;;;26.40;67.60;;;;;;5034757;28;20017;-54
2022/06/21 12:54:36;;;;;;;3.80;1.60;;;26.80;70.50;;;;;;5016946;28;20022;-55
2022/06/21 12:57:23;;;;;;;2.78;1.13;;;27.20;69.10;;;;;;5017518;28;20017;-48
2022/06/21 13:00:18;;;;;;;4.25;1.60;;;27.50;69.30;;;;;;5017185;28;20025;-51
2022/06/21 13:03:26;;;;;;;6.13;1.60;;;27.00;67.70;;;;;;5016614;28;20021;-49
2022/06/21 13:06:09;;;;;;;2.10;1.23;;;26.40;69.50;;;;;;5006024;28;20443;-51
2022/06/21 13:08:53;;;;;;;2.85;1.50;;;26.40;69.20;;;;;;5016512;28;20065;-50
2022/06/21 13:11:44;;;;;;;2.03;1.30;;;26.20;67.50;;;;;;5016536;28;20021;-48
2022/06/21 13:14:37;;;;;;;5.03;1.63;;;25.70;67.90;;;;;;5016930;28;20070;-48
2022/06/21 13:17:50;;;;;;;4.20;1.50;;;25.60;70.00;;;;;;5015940;28;20037;-46
2022/06/21 13:20:40;;;;;;;1.40;1.13;;;25.50;68.60;;;;;;5016213;28;20030;-50
2022/06/21 13:23:32;;;;;;;2.60;1.20;;;25.10;69.50;;;;;;5034275;28;20030;-50
2022/06/21 13:26:09;;;;;;;2.80;1.40;;;25.40;70.30;;;;;;5013237;28;20036;-52
2022/06/21 13:28:43;;;;;;;6.13;1.63;;;25.40;67.60;;;;;;5016109;28;20029;-47
2022/06/21 13:31:36;;;;;;;3.50;1.05;;;25.00;68.50;;;;;;5033771;28;20376;-48
2022/06/21 13:34:34;;;;;;;4.22;1.33;;;25.00;70.80;;;;;;5034167;28;20025;-47
2022/06/21 13:37:19;;;;;;;3.72;1.50;;;25.10;68.20;;;;;;5034046;28;20026;-47
2022/06/21 13:40:02;;;;;;;6.72;1.33;;;25.10;67.20;;;;;;5016111;28;20558;-46
2022/06/21 13:43:04;;;;;;;3.33;1.20;;;25.30;69.40;;;;;;5015983;28;20029;-45
2022/06/21 13:45:48;;;;;;;3.10;1.25;;;25.20;68.80;;;;;;4972982;28;20026;-46
2022/06/21 13:48:27;;;;;;;2.92;1.30;;;25.40;71.90;;;;;;5028533;28;20047;-46
2022/06/21 13:51:09;;;;;;;3.83;1.40;;;25.60;70.80;;;;;;5016376;28;20076;-48
2022/06/21 13:53:56;;;;;;;1.40;1.00;;;25.40;68.60;;;;;;5016772;28;20052;-51